sensor_id;sensor_type;location;lat;lon;timestamp;temperature;humidity
1812;DHT22;904;47.814;11.134;2023-07-31T00:00:09;19.50;76.90
1812;DHT22;904;47.814;11.134;2023-07-31T00:02:36;19.50;76.60
1812;DHT22;904;47.814;11.134;2023-07-31T00:05:04;19.40;76.70
1812;DHT22;904;47.814;11.134;2023-07-31T00:07:32;19.30;76.20
1812;DHT22;904;47.814;11.134;2023-07-31T00:09:59;19.30;76.10
1812;DHT22;904;47.814;11.134;2023-07-31T00:12:26;19.30;76.00
1812;DHT22;904;47.814;11.134;2023-07-31T00:14:53;19.20;76.10
1812;DHT22;904;47.814;11.134;2023-07-31T00:17:22;19.20;75.60
1812;DHT22;904;47.814;11.134;2023-07-31T00:19:49;19.20;75.80
1812;DHT22;904;47.814;11.134;2023-07-31T00:22:16;19.10;76.60
1812;DHT22;904;47.814;11.134;2023-07-31T00:24:45;19.10;77.00
1812;DHT22;904;47.814;11.134;2023-07-31T00:27:12;19.00;77.00
1812;DHT22;904;47.814;11.134;2023-07-31T00:29:39;19.10;77.00
1812;DHT22;904;47.814;11.134;2023-07-31T00:32:07;19.10;76.70
1812;DHT22;904;47.814;11.134;2023-07-31T00:34:35;19.20;76.90
1812;DHT22;904;47.814;11.134;2023-07-31T00:37:02;19.20;76.10
1812;DHT22;904;47.814;11.134;2023-07-31T00:39:30;19.00;76.80
1812;DHT22;904;47.814;11.134;2023-07-31T00:41:57;19.00;76.90
1812;DHT22;904;47.814;11.134;2023-07-31T00:44:24;18.90;76.90
1812;DHT22;904;47.814;11.134;2023-07-31T00:46:51;18.90;77.10
1812;DHT22;904;47.814;11.134;2023-07-31T00:49:18;18.90;77.00
1812;DHT22;904;47.814;11.134;2023-07-31T00:51:46;18.90;77.10
1812;DHT22;904;47.814;11.134;2023-07-31T00:54:13;19.00;76.40
1812;DHT22;904;47.814;11.134;2023-07-31T00:56:41;19.00;76.50
1812;DHT22;904;47.814;11.134;2023-07-31T00:59:08;19.00;76.60
1812;DHT22;904;47.814;11.134;2023-07-31T01:01:35;19.00;76.60
1812;DHT22;904;47.814;11.134;2023-07-31T01:04:03;19.10;76.60
1812;DHT22;904;47.814;11.134;2023-07-31T01:06:35;19.10;76.70
1812;DHT22;904;47.814;11.134;2023-07-31T01:09:11;19.10;76.60
1812;DHT22;904;47.814;11.134;2023-07-31T01:11:46;19.10;76.40
1812;DHT22;904;47.814;11.134;2023-07-31T01:14:14;19.20;76.80
1812;DHT22;904;47.814;11.134;2023-07-31T01:16:41;19.20;77.30
1812;DHT22;904;47.814;11.134;2023-07-31T01:19:09;19.20;77.80
1812;DHT22;904;47.814;11.134;2023-07-31T01:24:44;19.20;78.40
1812;DHT22;904;47.814;11.134;2023-07-31T01:27:23;19.20;77.80
1812;DHT22;904;47.814;11.134;2023-07-31T01:29:55;19.10;77.70
1812;DHT22;904;47.814;11.134;2023-07-31T01:32:23;19.10;77.70
1812;DHT22;904;47.814;11.134;2023-07-31T01:34:52;19.00;77.30
1812;DHT22;904;47.814;11.134;2023-07-31T01:37:20;18.90;76.70
1812;DHT22;904;47.814;11.134;2023-07-31T01:39:47;18.80;76.60
1812;DHT22;904;47.814;11.134;2023-07-31T01:42:14;18.80;76.70
1812;DHT22;904;47.814;11.134;2023-07-31T01:44:43;18.80;76.80
1812;DHT22;904;47.814;11.134;2023-07-31T01:47:10;18.90;77.00
1812;DHT22;904;47.814;11.134;2023-07-31T01:49:37;18.90;77.10
1812;DHT22;904;47.814;11.134;2023-07-31T01:52:05;18.90;77.00
1812;DHT22;904;47.814;11.134;2023-07-31T01:54:32;18.90;77.00
1812;DHT22;904;47.814;11.134;2023-07-31T01:56:59;18.90;77.10
1812;DHT22;904;47.814;11.134;2023-07-31T01:59:26;18.80;77.30
1812;DHT22;904;47.814;11.134;2023-07-31T02:01:56;18.80;77.40
1812;DHT22;904;47.814;11.134;2023-07-31T02:04:23;18.80;76.90
1812;DHT22;904;47.814;11.134;2023-07-31T02:06:50;18.80;77.00
1812;DHT22;904;47.814;11.134;2023-07-31T02:09:17;18.80;77.10
1812;DHT22;904;47.814;11.134;2023-07-31T02:11:44;18.60;77.20
1812;DHT22;904;47.814;11.134;2023-07-31T02:14:11;18.60;77.80
1812;DHT22;904;47.814;11.134;2023-07-31T02:16:38;18.50;78.10
1812;DHT22;904;47.814;11.134;2023-07-31T02:19:06;18.40;78.10
1812;DHT22;904;47.814;11.134;2023-07-31T02:21:33;18.40;78.80
1812;DHT22;904;47.814;11.134;2023-07-31T02:24:00;18.40;78.60
1812;DHT22;904;47.814;11.134;2023-07-31T02:26:30;18.40;78.90
1812;DHT22;904;47.814;11.134;2023-07-31T02:28:57;18.40;78.40
1812;DHT22;904;47.814;11.134;2023-07-31T02:31:26;18.40;78.80
1812;DHT22;904;47.814;11.134;2023-07-31T02:33:53;18.40;79.50
1812;DHT22;904;47.814;11.134;2023-07-31T02:36:21;18.40;79.70
1812;DHT22;904;47.814;11.134;2023-07-31T02:38:48;18.40;80.10
1812;DHT22;904;47.814;11.134;2023-07-31T02:41:15;18.40;80.40
1812;DHT22;904;47.814;11.134;2023-07-31T02:43:42;18.40;79.90
1812;DHT22;904;47.814;11.134;2023-07-31T02:46:09;18.40;79.90
1812;DHT22;904;47.814;11.134;2023-07-31T02:48:37;18.30;79.80
1812;DHT22;904;47.814;11.134;2023-07-31T02:51:04;18.10;79.80
1812;DHT22;904;47.814;11.134;2023-07-31T02:53:32;17.90;80.90
1812;DHT22;904;47.814;11.134;2023-07-31T02:55:59;17.90;81.20
1812;DHT22;904;47.814;11.134;2023-07-31T02:58:26;17.90;81.00
1812;DHT22;904;47.814;11.134;2023-07-31T03:00:53;17.80;81.10
1812;DHT22;904;47.814;11.134;2023-07-31T03:03:20;17.80;81.20
1812;DHT22;904;47.814;11.134;2023-07-31T03:05:47;17.70;81.40
1812;DHT22;904;47.814;11.134;2023-07-31T03:08:14;17.60;81.60
1812;DHT22;904;47.814;11.134;2023-07-31T03:10:41;17.60;81.30
1812;DHT22;904;47.814;11.134;2023-07-31T03:13:08;17.60;81.70
1812;DHT22;904;47.814;11.134;2023-07-31T03:15:35;17.50;81.80
1812;DHT22;904;47.814;11.134;2023-07-31T03:18:02;17.50;82.80
1812;DHT22;904;47.814;11.134;2023-07-31T03:20:29;17.50;82.10
1812;DHT22;904;47.814;11.134;2023-07-31T03:22:56;17.40;82.20
1812;DHT22;904;47.814;11.134;2023-07-31T03:25:23;17.30;82.60
1812;DHT22;904;47.814;11.134;2023-07-31T03:27:52;17.20;82.60
1812;DHT22;904;47.814;11.134;2023-07-31T03:30:21;17.30;82.80
1812;DHT22;904;47.814;11.134;2023-07-31T03:32:48;17.20;82.50
1812;DHT22;904;47.814;11.134;2023-07-31T03:35:17;17.20;82.50
1812;DHT22;904;47.814;11.134;2023-07-31T03:37:44;17.20;82.60
1812;DHT22;904;47.814;11.134;2023-07-31T03:40:11;17.20;82.60
1812;DHT22;904;47.814;11.134;2023-07-31T03:42:38;17.30;82.50
1812;DHT22;904;47.814;11.134;2023-07-31T03:45:08;17.30;82.30
1812;DHT22;904;47.814;11.134;2023-07-31T03:47:38;17.20;82.90
1812;DHT22;904;47.814;11.134;2023-07-31T03:50:10;17.10;83.10
1812;DHT22;904;47.814;11.134;2023-07-31T03:52:38;17.10;83.30
1812;DHT22;904;47.814;11.134;2023-07-31T03:55:05;17.10;83.20
1812;DHT22;904;47.814;11.134;2023-07-31T03:57:32;17.20;83.50
1812;DHT22;904;47.814;11.134;2023-07-31T03:59:59;17.20;83.20
1812;DHT22;904;47.814;11.134;2023-07-31T04:02:28;17.20;83.20
1812;DHT22;904;47.814;11.134;2023-07-31T04:04:56;17.10;83.00
1812;DHT22;904;47.814;11.134;2023-07-31T04:07:23;17.00;83.50
1812;DHT22;904;47.814;11.134;2023-07-31T04:09:50;16.90;83.80
1812;DHT22;904;47.814;11.134;2023-07-31T04:12:17;16.90;84.30
1812;DHT22;904;47.814;11.134;2023-07-31T04:14:44;16.90;84.10
1812;DHT22;904;47.814;11.134;2023-07-31T04:17:11;16.90;84.10
1812;DHT22;904;47.814;11.134;2023-07-31T04:19:40;16.90;84.60
1812;DHT22;904;47.814;11.134;2023-07-31T04:22:07;16.90;84.10
1812;DHT22;904;47.814;11.134;2023-07-31T04:24:34;16.90;84.20
1812;DHT22;904;47.814;11.134;2023-07-31T04:27:01;16.90;84.20
1812;DHT22;904;47.814;11.134;2023-07-31T04:29:28;16.80;84.80
1812;DHT22;904;47.814;11.134;2023-07-31T04:31:55;16.80;84.60
1812;DHT22;904;47.814;11.134;2023-07-31T04:34:22;16.80;84.70
1812;DHT22;904;47.814;11.134;2023-07-31T04:36:54;16.80;84.90
1812;DHT22;904;47.814;11.134;2023-07-31T04:39:21;16.90;84.70
1812;DHT22;904;47.814;11.134;2023-07-31T04:41:50;16.90;85.00
1812;DHT22;904;47.814;11.134;2023-07-31T04:44:17;16.90;84.60
1812;DHT22;904;47.814;11.134;2023-07-31T04:46:44;16.90;84.50
1812;DHT22;904;47.814;11.134;2023-07-31T04:49:16;16.90;84.70
1812;DHT22;904;47.814;11.134;2023-07-31T04:51:44;17.00;84.70
1812;DHT22;904;47.814;11.134;2023-07-31T04:54:12;17.00;85.10
1812;DHT22;904;47.814;11.134;2023-07-31T04:56:40;16.80;84.30
1812;DHT22;904;47.814;11.134;2023-07-31T04:59:07;16.70;85.50
1812;DHT22;904;47.814;11.134;2023-07-31T05:01:35;16.50;86.30
1812;DHT22;904;47.814;11.134;2023-07-31T05:04:02;16.30;87.40
1812;DHT22;904;47.814;11.134;2023-07-31T05:06:29;16.50;87.70
1812;DHT22;904;47.814;11.134;2023-07-31T05:08:56;16.60;87.30
1812;DHT22;904;47.814;11.134;2023-07-31T05:11:25;16.60;86.20
1812;DHT22;904;47.814;11.134;2023-07-31T05:13:51;16.50;86.90
1812;DHT22;904;47.814;11.134;2023-07-31T05:16:19;16.40;87.40
1812;DHT22;904;47.814;11.134;2023-07-31T05:18:45;16.50;86.90
1812;DHT22;904;47.814;11.134;2023-07-31T05:21:13;16.40;87.30
1812;DHT22;904;47.814;11.134;2023-07-31T05:23:45;16.40;87.60
1812;DHT22;904;47.814;11.134;2023-07-31T05:26:13;16.50;87.60
1812;DHT22;904;47.814;11.134;2023-07-31T05:28:41;16.40;88.30
1812;DHT22;904;47.814;11.134;2023-07-31T05:31:08;16.40;89.30
1812;DHT22;904;47.814;11.134;2023-07-31T05:33:35;16.60;88.60
1812;DHT22;904;47.814;11.134;2023-07-31T05:36:02;16.70;88.80
1812;DHT22;904;47.814;11.134;2023-07-31T05:38:34;16.90;88.30
1812;DHT22;904;47.814;11.134;2023-07-31T05:41:01;16.90;87.20
1812;DHT22;904;47.814;11.134;2023-07-31T05:43:28;16.80;87.40
1812;DHT22;904;47.814;11.134;2023-07-31T05:45:57;16.80;88.00
1812;DHT22;904;47.814;11.134;2023-07-31T05:48:24;16.80;88.90
1812;DHT22;904;47.814;11.134;2023-07-31T05:50:51;16.70;89.10
1812;DHT22;904;47.814;11.134;2023-07-31T05:53:18;16.70;89.60
1812;DHT22;904;47.814;11.134;2023-07-31T05:55:45;16.80;89.80
1812;DHT22;904;47.814;11.134;2023-07-31T05:58:11;17.00;89.70
1812;DHT22;904;47.814;11.134;2023-07-31T06:00:38;17.10;89.80
1812;DHT22;904;47.814;11.134;2023-07-31T06:03:08;17.30;89.80
1812;DHT22;904;47.814;11.134;2023-07-31T06:05:34;17.40;89.70
1812;DHT22;904;47.814;11.134;2023-07-31T06:08:02;17.40;89.20
1812;DHT22;904;47.814;11.134;2023-07-31T06:10:29;17.40;88.90
1812;DHT22;904;47.814;11.134;2023-07-31T06:12:56;17.40;88.70
1812;DHT22;904;47.814;11.134;2023-07-31T06:15:23;17.50;89.20
1812;DHT22;904;47.814;11.134;2023-07-31T06:17:50;17.70;88.30
1812;DHT22;904;47.814;11.134;2023-07-31T06:20:18;17.80;86.60
1812;DHT22;904;47.814;11.134;2023-07-31T06:22:45;17.80;86.70
1812;DHT22;904;47.814;11.134;2023-07-31T06:25:12;17.80;85.40
1812;DHT22;904;47.814;11.134;2023-07-31T06:27:39;17.90;85.70
1812;DHT22;904;47.814;11.134;2023-07-31T06:30:07;17.90;84.30
1812;DHT22;904;47.814;11.134;2023-07-31T06:32:34;18.00;85.00
1812;DHT22;904;47.814;11.134;2023-07-31T06:35:01;18.20;85.10
1812;DHT22;904;47.814;11.134;2023-07-31T06:37:30;18.30;83.00
1812;DHT22;904;47.814;11.134;2023-07-31T06:39:57;18.40;82.90
1812;DHT22;904;47.814;11.134;2023-07-31T06:42:24;18.50;82.60
1812;DHT22;904;47.814;11.134;2023-07-31T06:44:51;18.60;82.70
1812;DHT22;904;47.814;11.134;2023-07-31T06:47:18;18.70;82.30
1812;DHT22;904;47.814;11.134;2023-07-31T06:49:45;18.90;82.10
1812;DHT22;904;47.814;11.134;2023-07-31T06:52:12;19.00;82.00
1812;DHT22;904;47.814;11.134;2023-07-31T06:54:40;19.10;81.30
1812;DHT22;904;47.814;11.134;2023-07-31T06:57:07;19.10;80.60
1812;DHT22;904;47.814;11.134;2023-07-31T06:59:34;19.20;81.10
1812;DHT22;904;47.814;11.134;2023-07-31T07:02:01;19.40;80.90
1812;DHT22;904;47.814;11.134;2023-07-31T07:04:28;19.50;80.70
1812;DHT22;904;47.814;11.134;2023-07-31T07:06:55;19.60;81.10
1812;DHT22;904;47.814;11.134;2023-07-31T07:09:22;19.80;81.30
1812;DHT22;904;47.814;11.134;2023-07-31T07:11:50;20.00;80.70
1812;DHT22;904;47.814;11.134;2023-07-31T07:14:17;20.10;78.30
1812;DHT22;904;47.814;11.134;2023-07-31T07:16:44;20.20;78.20
1812;DHT22;904;47.814;11.134;2023-07-31T07:19:10;20.30;78.10
1812;DHT22;904;47.814;11.134;2023-07-31T07:21:37;20.50;78.50
1812;DHT22;904;47.814;11.134;2023-07-31T07:24:04;20.60;77.60
1812;DHT22;904;47.814;11.134;2023-07-31T07:26:31;20.60;76.00
1812;DHT22;904;47.814;11.134;2023-07-31T07:28:59;20.80;75.90
1812;DHT22;904;47.814;11.134;2023-07-31T07:31:27;20.90;74.10
1812;DHT22;904;47.814;11.134;2023-07-31T07:33:54;21.00;70.40
1812;DHT22;904;47.814;11.134;2023-07-31T07:36:22;21.00;71.10
1812;DHT22;904;47.814;11.134;2023-07-31T07:38:49;21.10;71.80
1812;DHT22;904;47.814;11.134;2023-07-31T07:41:16;21.30;72.50
1812;DHT22;904;47.814;11.134;2023-07-31T07:43:43;21.40;71.90
1812;DHT22;904;47.814;11.134;2023-07-31T07:46:11;21.60;72.60
1812;DHT22;904;47.814;11.134;2023-07-31T07:48:38;21.70;72.60
1812;DHT22;904;47.814;11.134;2023-07-31T07:51:05;21.80;68.50
1812;DHT22;904;47.814;11.134;2023-07-31T07:53:32;21.90;68.80
1812;DHT22;904;47.814;11.134;2023-07-31T07:55:59;22.00;68.80
1812;DHT22;904;47.814;11.134;2023-07-31T07:58:26;22.10;68.10
1812;DHT22;904;47.814;11.134;2023-07-31T08:00:53;22.10;66.20
1812;DHT22;904;47.814;11.134;2023-07-31T08:03:21;22.20;65.80
1812;DHT22;904;47.814;11.134;2023-07-31T08:05:48;22.20;64.00
1812;DHT22;904;47.814;11.134;2023-07-31T08:08:15;22.20;65.40
1812;DHT22;904;47.814;11.134;2023-07-31T08:10:42;22.30;64.70
1812;DHT22;904;47.814;11.134;2023-07-31T08:13:10;22.40;64.20
1812;DHT22;904;47.814;11.134;2023-07-31T08:15:41;22.50;65.20
1812;DHT22;904;47.814;11.134;2023-07-31T08:18:08;22.60;63.60
1812;DHT22;904;47.814;11.134;2023-07-31T08:20:36;22.70;63.60
1812;DHT22;904;47.814;11.134;2023-07-31T08:23:04;22.80;63.80
1812;DHT22;904;47.814;11.134;2023-07-31T08:25:31;22.90;62.60
1812;DHT22;904;47.814;11.134;2023-07-31T08:28:01;23.00;62.60
1812;DHT22;904;47.814;11.134;2023-07-31T08:30:28;23.10;64.00
1812;DHT22;904;47.814;11.134;2023-07-31T08:32:55;23.20;62.50
1812;DHT22;904;47.814;11.134;2023-07-31T08:35:22;23.20;61.00
1812;DHT22;904;47.814;11.134;2023-07-31T08:37:50;23.20;60.50
1812;DHT22;904;47.814;11.134;2023-07-31T08:40:17;23.30;60.20
1812;DHT22;904;47.814;11.134;2023-07-31T08:42:45;23.40;60.80
1812;DHT22;904;47.814;11.134;2023-07-31T08:45:14;23.60;61.70
1812;DHT22;904;47.814;11.134;2023-07-31T08:47:44;23.70;60.50
1812;DHT22;904;47.814;11.134;2023-07-31T08:50:12;23.80;60.70
1812;DHT22;904;47.814;11.134;2023-07-31T08:52:40;24.00;60.20
1812;DHT22;904;47.814;11.134;2023-07-31T08:55:09;24.00;59.60
1812;DHT22;904;47.814;11.134;2023-07-31T08:57:37;24.20;61.10
1812;DHT22;904;47.814;11.134;2023-07-31T09:00:06;24.30;59.70
1812;DHT22;904;47.814;11.134;2023-07-31T09:02:38;24.30;58.00
1812;DHT22;904;47.814;11.134;2023-07-31T09:05:08;24.40;57.90
1812;DHT22;904;47.814;11.134;2023-07-31T09:07:35;24.40;57.50
1812;DHT22;904;47.814;11.134;2023-07-31T09:10:04;24.50;58.80
1812;DHT22;904;47.814;11.134;2023-07-31T09:12:32;24.70;57.80
1812;DHT22;904;47.814;11.134;2023-07-31T09:15:00;24.80;56.80
1812;DHT22;904;47.814;11.134;2023-07-31T09:17:31;24.80;56.90
1812;DHT22;904;47.814;11.134;2023-07-31T09:19:58;24.80;55.80
1812;DHT22;904;47.814;11.134;2023-07-31T09:22:35;24.90;57.00
1812;DHT22;904;47.814;11.134;2023-07-31T09:25:14;25.20;58.50
1812;DHT22;904;47.814;11.134;2023-07-31T09:27:53;25.40;58.70
1812;DHT22;904;47.814;11.134;2023-07-31T09:30:21;25.50;56.00
1812;DHT22;904;47.814;11.134;2023-07-31T09:32:50;25.70;56.40
1812;DHT22;904;47.814;11.134;2023-07-31T09:35:21;25.80;56.00
1812;DHT22;904;47.814;11.134;2023-07-31T09:37:49;25.90;56.10
1812;DHT22;904;47.814;11.134;2023-07-31T09:40:27;26.10;56.00
1812;DHT22;904;47.814;11.134;2023-07-31T09:42:58;26.10;53.60
1812;DHT22;904;47.814;11.134;2023-07-31T09:45:25;26.20;53.00
1812;DHT22;904;47.814;11.134;2023-07-31T09:47:52;26.40;53.80
1812;DHT22;904;47.814;11.134;2023-07-31T09:50:20;26.50;54.60
1812;DHT22;904;47.814;11.134;2023-07-31T09:52:48;26.70;53.70
1812;DHT22;904;47.814;11.134;2023-07-31T09:55:15;26.80;53.90
1812;DHT22;904;47.814;11.134;2023-07-31T09:57:44;27.00;54.30
1812;DHT22;904;47.814;11.134;2023-07-31T10:00:14;27.10;52.90
1812;DHT22;904;47.814;11.134;2023-07-31T10:02:45;27.10;52.00
1812;DHT22;904;47.814;11.134;2023-07-31T10:05:13;27.10;50.10
1812;DHT22;904;47.814;11.134;2023-07-31T10:07:43;27.00;52.40
1812;DHT22;904;47.814;11.134;2023-07-31T10:10:12;26.90;51.80
1812;DHT22;904;47.814;11.134;2023-07-31T10:12:41;27.00;53.10
1812;DHT22;904;47.814;11.134;2023-07-31T10:15:08;27.00;50.70
1812;DHT22;904;47.814;11.134;2023-07-31T10:17:38;26.80;47.60
1812;DHT22;904;47.814;11.134;2023-07-31T10:20:07;26.60;48.50
1812;DHT22;904;47.814;11.134;2023-07-31T10:22:34;26.60;50.80
1812;DHT22;904;47.814;11.134;2023-07-31T10:25:02;26.70;51.50
1812;DHT22;904;47.814;11.134;2023-07-31T10:27:29;26.90;52.20
1812;DHT22;904;47.814;11.134;2023-07-31T10:29:57;27.10;51.80
1812;DHT22;904;47.814;11.134;2023-07-31T10:32:25;27.30;51.00
1812;DHT22;904;47.814;11.134;2023-07-31T10:34:55;27.40;48.20
1812;DHT22;904;47.814;11.134;2023-07-31T10:37:26;27.40;47.20
1812;DHT22;904;47.814;11.134;2023-07-31T10:39:59;27.40;48.50
1812;DHT22;904;47.814;11.134;2023-07-31T10:42:30;27.40;48.10
1812;DHT22;904;47.814;11.134;2023-07-31T10:44:59;27.40;49.60
1812;DHT22;904;47.814;11.134;2023-07-31T10:47:26;27.60;49.50
1812;DHT22;904;47.814;11.134;2023-07-31T10:50:11;27.70;49.40
1812;DHT22;904;47.814;11.134;2023-07-31T10:52:38;27.80;48.50
1812;DHT22;904;47.814;11.134;2023-07-31T10:55:15;27.80;46.00
1812;DHT22;904;47.814;11.134;2023-07-31T10:57:44;27.80;45.80
1812;DHT22;904;47.814;11.134;2023-07-31T11:00:19;27.80;46.40
1812;DHT22;904;47.814;11.134;2023-07-31T11:03:09;27.90;45.00
1812;DHT22;904;47.814;11.134;2023-07-31T11:05:53;27.90;45.70
1812;DHT22;904;47.814;11.134;2023-07-31T11:08:22;27.70;44.30
1812;DHT22;904;47.814;11.134;2023-07-31T11:10:50;27.70;44.20
1812;DHT22;904;47.814;11.134;2023-07-31T11:13:18;27.70;45.40
1812;DHT22;904;47.814;11.134;2023-07-31T11:15:45;27.50;43.70
1812;DHT22;904;47.814;11.134;2023-07-31T11:18:12;27.40;43.40
1812;DHT22;904;47.814;11.134;2023-07-31T11:20:39;27.40;45.50
1812;DHT22;904;47.814;11.134;2023-07-31T11:23:09;27.40;46.80
1812;DHT22;904;47.814;11.134;2023-07-31T11:25:37;27.30;44.90
1812;DHT22;904;47.814;11.134;2023-07-31T11:28:07;27.40;44.90
1812;DHT22;904;47.814;11.134;2023-07-31T11:30:34;27.50;46.70
1812;DHT22;904;47.814;11.134;2023-07-31T11:33:03;27.60;47.20
1812;DHT22;904;47.814;11.134;2023-07-31T11:35:31;27.70;46.00
1812;DHT22;904;47.814;11.134;2023-07-31T11:37:59;27.80;46.00
1812;DHT22;904;47.814;11.134;2023-07-31T11:40:27;27.90;46.30
1812;DHT22;904;47.814;11.134;2023-07-31T11:42:56;28.00;43.70
1812;DHT22;904;47.814;11.134;2023-07-31T11:45:27;28.00;42.70
1812;DHT22;904;47.814;11.134;2023-07-31T11:47:55;27.90;42.30
1812;DHT22;904;47.814;11.134;2023-07-31T11:50:23;27.90;41.70
1812;DHT22;904;47.814;11.134;2023-07-31T11:52:54;27.90;43.40
1812;DHT22;904;47.814;11.134;2023-07-31T11:55:24;27.90;42.90
1812;DHT22;904;47.814;11.134;2023-07-31T11:57:57;27.90;42.50
1812;DHT22;904;47.814;11.134;2023-07-31T12:00:24;27.80;42.80
1812;DHT22;904;47.814;11.134;2023-07-31T12:02:51;27.80;44.40
1812;DHT22;904;47.814;11.134;2023-07-31T12:05:19;27.90;44.50
1812;DHT22;904;47.814;11.134;2023-07-31T12:07:47;28.00;44.20
1812;DHT22;904;47.814;11.134;2023-07-31T12:10:27;28.00;42.20
1812;DHT22;904;47.814;11.134;2023-07-31T12:13:03;28.00;40.90
1812;DHT22;904;47.814;11.134;2023-07-31T12:15:33;27.80;40.20
1812;DHT22;904;47.814;11.134;2023-07-31T12:18:01;27.70;41.80
1812;DHT22;904;47.814;11.134;2023-07-31T12:20:30;27.70;41.80
1812;DHT22;904;47.814;11.134;2023-07-31T12:22:58;27.70;40.30
1812;DHT22;904;47.814;11.134;2023-07-31T12:25:32;27.70;41.10
1812;DHT22;904;47.814;11.134;2023-07-31T12:28:06;27.70;39.90
1812;DHT22;904;47.814;11.134;2023-07-31T12:30:37;27.70;40.10
1812;DHT22;904;47.814;11.134;2023-07-31T12:33:06;27.70;38.80
1812;DHT22;904;47.814;11.134;2023-07-31T12:35:43;27.70;38.60
1812;DHT22;904;47.814;11.134;2023-07-31T12:38:11;27.70;37.90
1812;DHT22;904;47.814;11.134;2023-07-31T12:40:41;27.70;38.80
1812;DHT22;904;47.814;11.134;2023-07-31T12:43:10;27.80;38.10
1812;DHT22;904;47.814;11.134;2023-07-31T12:45:37;27.80;38.30
1812;DHT22;904;47.814;11.134;2023-07-31T12:48:04;27.80;38.10
1812;DHT22;904;47.814;11.134;2023-07-31T12:50:31;27.90;37.90
1812;DHT22;904;47.814;11.134;2023-07-31T12:52:58;27.90;38.20
1812;DHT22;904;47.814;11.134;2023-07-31T12:55:25;28.00;38.30
1812;DHT22;904;47.814;11.134;2023-07-31T12:57:56;28.00;38.90
1812;DHT22;904;47.814;11.134;2023-07-31T13:00:24;28.00;37.40
1812;DHT22;904;47.814;11.134;2023-07-31T13:02:52;28.00;38.40
1812;DHT22;904;47.814;11.134;2023-07-31T13:05:19;28.00;38.60
1812;DHT22;904;47.814;11.134;2023-07-31T13:07:46;28.00;38.70
1812;DHT22;904;47.814;11.134;2023-07-31T13:10:13;28.00;38.70
1812;DHT22;904;47.814;11.134;2023-07-31T13:12:42;27.90;38.60
1812;DHT22;904;47.814;11.134;2023-07-31T13:15:10;27.90;38.10
1812;DHT22;904;47.814;11.134;2023-07-31T13:17:38;27.90;37.60
1812;DHT22;904;47.814;11.134;2023-07-31T13:20:06;28.00;38.80
1812;DHT22;904;47.814;11.134;2023-07-31T13:22:34;28.00;37.70
1812;DHT22;904;47.814;11.134;2023-07-31T13:25:02;28.10;39.20
1812;DHT22;904;47.814;11.134;2023-07-31T13:27:29;28.10;37.20
1812;DHT22;904;47.814;11.134;2023-07-31T13:29:56;28.00;36.30
1812;DHT22;904;47.814;11.134;2023-07-31T13:32:23;28.10;37.60
1812;DHT22;904;47.814;11.134;2023-07-31T13:34:52;28.10;37.80
1812;DHT22;904;47.814;11.134;2023-07-31T13:37:19;28.10;37.90
1812;DHT22;904;47.814;11.134;2023-07-31T13:39:46;28.10;36.00
1812;DHT22;904;47.814;11.134;2023-07-31T13:42:14;28.00;35.90
1812;DHT22;904;47.814;11.134;2023-07-31T13:44:42;28.00;35.60
1812;DHT22;904;47.814;11.134;2023-07-31T13:47:09;28.00;36.60
1812;DHT22;904;47.814;11.134;2023-07-31T13:49:36;28.00;38.00
1812;DHT22;904;47.814;11.134;2023-07-31T13:52:06;27.90;38.00
1812;DHT22;904;47.814;11.134;2023-07-31T13:54:33;27.90;36.20
1812;DHT22;904;47.814;11.134;2023-07-31T13:57:00;27.90;37.20
1812;DHT22;904;47.814;11.134;2023-07-31T13:59:27;27.90;35.00
1812;DHT22;904;47.814;11.134;2023-07-31T14:01:54;27.90;36.10
1812;DHT22;904;47.814;11.134;2023-07-31T14:04:21;27.90;36.60
1812;DHT22;904;47.814;11.134;2023-07-31T14:06:48;27.80;36.90
1812;DHT22;904;47.814;11.134;2023-07-31T14:09:17;27.70;36.20
1812;DHT22;904;47.814;11.134;2023-07-31T14:11:44;27.70;36.00
1812;DHT22;904;47.814;11.134;2023-07-31T14:14:11;27.70;37.10
1812;DHT22;904;47.814;11.134;2023-07-31T14:16:39;27.60;37.40
1812;DHT22;904;47.814;11.134;2023-07-31T14:19:06;27.60;36.80
1812;DHT22;904;47.814;11.134;2023-07-31T14:21:34;27.50;37.10
1812;DHT22;904;47.814;11.134;2023-07-31T14:24:01;27.40;36.90
1812;DHT22;904;47.814;11.134;2023-07-31T14:26:29;27.30;37.00
1812;DHT22;904;47.814;11.134;2023-07-31T14:28:56;27.30;38.10
1812;DHT22;904;47.814;11.134;2023-07-31T14:31:23;27.20;36.10
1812;DHT22;904;47.814;11.134;2023-07-31T14:33:51;27.20;36.60
1812;DHT22;904;47.814;11.134;2023-07-31T14:36:18;27.20;36.70
1812;DHT22;904;47.814;11.134;2023-07-31T14:38:50;27.20;36.90
1812;DHT22;904;47.814;11.134;2023-07-31T14:41:17;27.20;37.20
1812;DHT22;904;47.814;11.134;2023-07-31T14:43:45;27.20;37.70
1812;DHT22;904;47.814;11.134;2023-07-31T14:46:12;27.20;36.50
1812;DHT22;904;47.814;11.134;2023-07-31T14:48:40;27.10;35.80
1812;DHT22;904;47.814;11.134;2023-07-31T14:51:07;27.00;36.90
1812;DHT22;904;47.814;11.134;2023-07-31T14:53:34;26.90;37.20
1812;DHT22;904;47.814;11.134;2023-07-31T14:56:01;26.90;37.60
1812;DHT22;904;47.814;11.134;2023-07-31T14:58:28;26.90;38.30
1812;DHT22;904;47.814;11.134;2023-07-31T15:00:57;26.90;37.90
1812;DHT22;904;47.814;11.134;2023-07-31T15:03:24;26.80;37.30
1812;DHT22;904;47.814;11.134;2023-07-31T15:05:53;26.80;38.10
1812;DHT22;904;47.814;11.134;2023-07-31T15:08:20;26.90;38.30
1812;DHT22;904;47.814;11.134;2023-07-31T15:10:47;27.00;38.30
1812;DHT22;904;47.814;11.134;2023-07-31T15:13:14;27.00;38.50
1812;DHT22;904;47.814;11.134;2023-07-31T15:15:41;27.00;38.50
1812;DHT22;904;47.814;11.134;2023-07-31T15:18:10;27.00;38.30
1812;DHT22;904;47.814;11.134;2023-07-31T15:20:41;27.00;37.50
1812;DHT22;904;47.814;11.134;2023-07-31T15:23:08;26.90;38.20
1812;DHT22;904;47.814;11.134;2023-07-31T15:25:35;26.90;38.60
1812;DHT22;904;47.814;11.134;2023-07-31T15:28:02;26.80;38.50
1812;DHT22;904;47.814;11.134;2023-07-31T15:30:30;26.80;38.10
1812;DHT22;904;47.814;11.134;2023-07-31T15:32:57;26.70;38.00
1812;DHT22;904;47.814;11.134;2023-07-31T15:35:27;26.70;38.40
1812;DHT22;904;47.814;11.134;2023-07-31T15:37:54;26.70;38.60
1812;DHT22;904;47.814;11.134;2023-07-31T15:40:23;26.70;38.90
1812;DHT22;904;47.814;11.134;2023-07-31T15:42:50;26.60;38.80
1812;DHT22;904;47.814;11.134;2023-07-31T15:45:17;26.60;38.70
1812;DHT22;904;47.814;11.134;2023-07-31T15:47:44;26.50;38.80
1812;DHT22;904;47.814;11.134;2023-07-31T15:50:14;26.50;39.20
1812;DHT22;904;47.814;11.134;2023-07-31T15:52:42;26.30;38.80
1812;DHT22;904;47.814;11.134;2023-07-31T15:55:10;26.20;39.20
1812;DHT22;904;47.814;11.134;2023-07-31T15:57:37;26.10;40.50
1812;DHT22;904;47.814;11.134;2023-07-31T16:00:05;26.20;41.30
1812;DHT22;904;47.814;11.134;2023-07-31T16:02:34;26.20;41.10
1812;DHT22;904;47.814;11.134;2023-07-31T16:05:01;26.10;41.00
1812;DHT22;904;47.814;11.134;2023-07-31T16:07:28;26.10;41.30
1812;DHT22;904;47.814;11.134;2023-07-31T16:09:56;26.10;41.40